JTC319 LOWS-LFKJ
Flight info
| Callsign | JTC319 |
|---|---|
| Flight time | 1h 12m |
| Altitude | 37000 |
| Route | DETSA DCT GIKEB DCT RIDVA DCT LOGDI DCT IDONA DCT TORTU |
| Aircraft | A319/M-SDE3FGHIRWY/LB1 |
Departure
| Time | 2026-05-05 23:22 |
|---|---|
| Airport | Salzburg Airport (LOWS) |
Arrival
| Time | 2026-05-06 00:34 |
|---|---|
| Airport | Ajaccio Napoléon Bonaparte airport (LFKJ) |
| Time | Latitude | Longitude | Altitude | Speed | Heading |
|---|---|---|---|---|---|
| 2026-05-05 23:06 | 47.79592 | 12.99877 | 1415 ft | 0 kts | 15° |
| 2026-05-05 23:17 | 47.79597 | 12.99875 | 1418 ft | 1 kts | 346° |
| 2026-05-05 23:17 | 47.79595 | 12.99836 | 1415 ft | 5 kts | 233° |
| 2026-05-05 23:17 | 47.79548 | 12.99852 | 1415 ft | 10 kts | 127° |
| 2026-05-05 23:17 | 47.79562 | 12.99945 | 1417 ft | 9 kts | 72° |
| 2026-05-05 23:18 | 47.79521 | 13.00008 | 1417 ft | 11 kts | 158° |
| 2026-05-05 23:18 | 47.79436 | 13.00063 | 1415 ft | 17 kts | 156° |
| 2026-05-05 23:18 | 47.79330 | 13.00129 | 1415 ft | 15 kts | 156° |
| 2026-05-05 23:18 | 47.79241 | 13.00187 | 1415 ft | 13 kts | 158° |
| 2026-05-05 23:19 | 47.79165 | 13.00235 | 1415 ft | 11 kts | 156° |
| 2026-05-05 23:19 | 47.79075 | 13.00291 | 1415 ft | 18 kts | 158° |
| 2026-05-05 23:19 | 47.78939 | 13.00376 | 1416 ft | 25 kts | 157° |
| 2026-05-05 23:19 | 47.78761 | 13.00488 | 1416 ft | 31 kts | 157° |
| 2026-05-05 23:20 | 47.78546 | 13.00623 | 1415 ft | 36 kts | 157° |
| 2026-05-05 23:20 | 47.78301 | 13.00779 | 1415 ft | 35 kts | 154° |
| 2026-05-05 23:20 | 47.78180 | 13.00927 | 1417 ft | 15 kts | 104° |
| 2026-05-05 23:20 | 47.78202 | 13.01055 | 1417 ft | 12 kts | 65° |
| 2026-05-05 23:21 | 47.78250 | 13.01082 | 1416 ft | 9 kts | 335° |
| 2026-05-05 23:21 | 47.78343 | 13.01023 | 1413 ft | 23 kts | 338° |
| 2026-05-05 23:21 | 47.78748 | 13.00765 | 1416 ft | 108 kts | 336° |
| 2026-05-05 23:21 | 47.79628 | 13.00184 | 1708 ft | 150 kts | 333° |
| 2026-05-05 23:22 | 47.80593 | 12.99572 | 2612 ft | 154 kts | 336° |
| 2026-05-05 23:22 | 47.81639 | 12.98896 | 3242 ft | 175 kts | 333° |
| 2026-05-05 23:22 | 47.82627 | 12.97661 | 3870 ft | 199 kts | 306° |
| 2026-05-05 23:22 | 47.83386 | 12.95777 | 4537 ft | 225 kts | 298° |
| 2026-05-05 23:23 | 47.84200 | 12.93643 | 5293 ft | 250 kts | 298° |
| 2026-05-05 23:23 | 47.85085 | 12.91327 | 6189 ft | 269 kts | 297° |
| 2026-05-05 23:23 | 47.86025 | 12.88876 | 7338 ft | 275 kts | 297° |
| 2026-05-05 23:23 | 47.86989 | 12.86376 | 8489 ft | 281 kts | 297° |
| 2026-05-05 23:24 | 47.87973 | 12.83824 | 9657 ft | 287 kts | 297° |
| 2026-05-05 23:24 | 47.88873 | 12.81093 | 10426 ft | 304 kts | 286° |
| 2026-05-05 23:24 | 47.89239 | 12.77895 | 11014 ft | 322 kts | 268° |
| 2026-05-05 23:24 | 47.88895 | 12.74580 | 11961 ft | 327 kts | 251° |
| 2026-05-05 23:25 | 47.87961 | 12.71484 | 13001 ft | 330 kts | 237° |
| 2026-05-05 23:25 | 47.86511 | 12.68818 | 13970 ft | 334 kts | 223° |
| 2026-05-05 23:25 | 47.84642 | 12.66734 | 14888 ft | 339 kts | 210° |
| 2026-05-05 23:25 | 47.82463 | 12.65361 | 15793 ft | 344 kts | 197° |
| 2026-05-05 23:26 | 47.80130 | 12.64502 | 16735 ft | 347 kts | 194° |
| 2026-05-05 23:26 | 47.77770 | 12.63643 | 17657 ft | 351 kts | 194° |
| 2026-05-05 23:26 | 47.75384 | 12.62766 | 18480 ft | 355 kts | 195° |
| 2026-05-05 23:26 | 47.72978 | 12.61876 | 19283 ft | 358 kts | 195° |
| 2026-05-05 23:27 | 47.70553 | 12.60975 | 20091 ft | 361 kts | 194° |
| 2026-05-05 23:27 | 47.68107 | 12.60063 | 20924 ft | 363 kts | 195° |
| 2026-05-05 23:27 | 47.65647 | 12.59147 | 21729 ft | 366 kts | 195° |
| 2026-05-05 23:27 | 47.63161 | 12.58224 | 22506 ft | 370 kts | 194° |
| 2026-05-05 23:28 | 47.60655 | 12.57295 | 23265 ft | 373 kts | 194° |
| 2026-05-05 23:28 | 47.58122 | 12.56362 | 23901 ft | 377 kts | 194° |
| 2026-05-05 23:28 | 47.55571 | 12.55424 | 24478 ft | 380 kts | 194° |
| 2026-05-05 23:28 | 47.53325 | 12.54597 | 25002 ft | 382 kts | 195° |
| 2026-05-05 23:29 | 47.50614 | 12.53605 | 25595 ft | 386 kts | 195° |
| 2026-05-05 23:29 | 47.48037 | 12.52660 | 26178 ft | 389 kts | 195° |
| 2026-05-05 23:29 | 47.45398 | 12.51689 | 26750 ft | 392 kts | 195° |
| 2026-05-05 23:29 | 47.42739 | 12.50713 | 27307 ft | 396 kts | 195° |
| 2026-05-05 23:30 | 47.40055 | 12.49733 | 27850 ft | 399 kts | 195° |
| 2026-05-05 23:30 | 47.37349 | 12.48746 | 28403 ft | 402 kts | 195° |
| 2026-05-05 23:30 | 47.34620 | 12.47753 | 28912 ft | 406 kts | 195° |
| 2026-05-05 23:30 | 47.31872 | 12.46752 | 29411 ft | 409 kts | 196° |
| 2026-05-05 23:31 | 47.29098 | 12.45739 | 29937 ft | 412 kts | 196° |
| 2026-05-05 23:31 | 47.26305 | 12.44719 | 30346 ft | 415 kts | 196° |
| 2026-05-05 23:31 | 47.23491 | 12.43691 | 30745 ft | 418 kts | 196° |
| 2026-05-05 23:31 | 47.20658 | 12.42661 | 31202 ft | 420 kts | 196° |
| 2026-05-05 23:32 | 47.17812 | 12.41633 | 31583 ft | 422 kts | 196° |
| 2026-05-05 23:32 | 47.14951 | 12.40602 | 31935 ft | 424 kts | 196° |
| 2026-05-05 23:32 | 47.12077 | 12.39563 | 32397 ft | 425 kts | 197° |
| 2026-05-05 23:32 | 47.09207 | 12.38523 | 32893 ft | 425 kts | 197° |
| 2026-05-05 23:33 | 47.06343 | 12.37488 | 33474 ft | 423 kts | 197° |
| 2026-05-05 23:33 | 47.03493 | 12.36462 | 34079 ft | 421 kts | 197° |
| 2026-05-05 23:33 | 47.00652 | 12.35442 | 34576 ft | 420 kts | 197° |
| 2026-05-05 23:33 | 46.97815 | 12.34423 | 35054 ft | 420 kts | 197° |
| 2026-05-05 23:34 | 46.94982 | 12.33406 | 35524 ft | 419 kts | 197° |
| 2026-05-05 23:34 | 46.92151 | 12.32388 | 35972 ft | 419 kts | 197° |
| 2026-05-05 23:34 | 46.89320 | 12.31365 | 36400 ft | 419 kts | 197° |
| 2026-05-05 23:34 | 46.86494 | 12.30345 | 36836 ft | 419 kts | 197° |
| 2026-05-05 23:35 | 46.83662 | 12.29326 | 36995 ft | 418 kts | 197° |
| 2026-05-05 23:35 | 46.80918 | 12.28017 | 37032 ft | 413 kts | 206° |
| 2026-05-05 23:35 | 46.76113 | 12.23654 | 37036 ft | 408 kts | 218° |
| 2026-05-05 23:36 | 46.71554 | 12.18711 | 36962 ft | 409 kts | 218° |
| 2026-05-05 23:36 | 46.66970 | 12.13795 | 36956 ft | 408 kts | 218° |
| 2026-05-05 23:37 | 46.62390 | 12.08898 | 36959 ft | 409 kts | 218° |
| 2026-05-05 23:37 | 46.57842 | 12.04031 | 36975 ft | 408 kts | 218° |
| 2026-05-05 23:38 | 46.53269 | 11.99145 | 36961 ft | 408 kts | 218° |
| 2026-05-05 23:38 | 46.48691 | 11.94255 | 36968 ft | 409 kts | 218° |
| 2026-05-05 23:39 | 46.44109 | 11.89383 | 36975 ft | 408 kts | 218° |
| 2026-05-05 23:39 | 46.39523 | 11.84523 | 36995 ft | 409 kts | 218° |
| 2026-05-05 23:40 | 46.34929 | 11.79664 | 36971 ft | 409 kts | 218° |
| 2026-05-05 23:40 | 46.30333 | 11.74813 | 36985 ft | 409 kts | 218° |
| 2026-05-05 23:41 | 46.25728 | 11.69966 | 36990 ft | 409 kts | 218° |
| 2026-05-05 23:41 | 46.21123 | 11.65113 | 36999 ft | 410 kts | 218° |
| 2026-05-05 23:42 | 46.16505 | 11.60287 | 36995 ft | 410 kts | 217° |
| 2026-05-05 23:42 | 46.11947 | 11.55785 | 37009 ft | 410 kts | 216° |
| 2026-05-05 23:43 | 46.07199 | 11.51212 | 37009 ft | 411 kts | 216° |
| 2026-05-05 23:43 | 46.02495 | 11.46650 | 37009 ft | 410 kts | 216° |
| 2026-05-05 23:44 | 45.97777 | 11.42033 | 37007 ft | 410 kts | 216° |
| 2026-05-05 23:44 | 45.93056 | 11.37420 | 37010 ft | 410 kts | 216° |
| 2026-05-05 23:45 | 45.88330 | 11.32819 | 37014 ft | 410 kts | 216° |
| 2026-05-05 23:45 | 45.83594 | 11.28236 | 37005 ft | 410 kts | 216° |
| 2026-05-05 23:46 | 45.78861 | 11.23660 | 37008 ft | 410 kts | 216° |
| 2026-05-05 23:46 | 45.74130 | 11.19087 | 37005 ft | 410 kts | 216° |
| 2026-05-05 23:47 | 45.69404 | 11.14518 | 36995 ft | 410 kts | 216° |
| 2026-05-05 23:47 | 45.64670 | 11.09964 | 36993 ft | 410 kts | 216° |
| 2026-05-05 23:48 | 45.59928 | 11.05420 | 36975 ft | 411 kts | 216° |
| 2026-05-05 23:48 | 45.55185 | 11.00877 | 36976 ft | 410 kts | 216° |
| 2026-05-05 23:49 | 45.51242 | 10.97107 | 36975 ft | 410 kts | 216° |
| 2026-05-05 23:49 | 45.46500 | 10.92576 | 36995 ft | 410 kts | 216° |
| 2026-05-05 23:50 | 45.41765 | 10.88059 | 36991 ft | 409 kts | 216° |
| 2026-05-05 23:50 | 45.37088 | 10.83617 | 36992 ft | 408 kts | 216° |
| 2026-05-05 23:51 | 45.33258 | 10.79988 | 36992 ft | 408 kts | 216° |
| 2026-05-05 23:51 | 45.29120 | 10.76062 | 36993 ft | 407 kts | 216° |
| 2026-05-05 23:52 | 45.24403 | 10.71602 | 36984 ft | 407 kts | 217° |
| 2026-05-05 23:52 | 45.19692 | 10.67165 | 36985 ft | 406 kts | 217° |
| 2026-05-05 23:53 | 45.14995 | 10.62721 | 36987 ft | 406 kts | 217° |
| 2026-05-05 23:53 | 45.10373 | 10.58150 | 36997 ft | 405 kts | 218° |
| 2026-05-05 23:54 | 45.05783 | 10.53530 | 37004 ft | 404 kts | 218° |
| 2026-05-05 23:54 | 45.01192 | 10.48947 | 37001 ft | 404 kts | 218° |
| 2026-05-05 23:55 | 44.96624 | 10.44433 | 37003 ft | 403 kts | 218° |
| 2026-05-05 23:55 | 44.92020 | 10.39908 | 37004 ft | 403 kts | 218° |
| 2026-05-05 23:56 | 44.87423 | 10.35394 | 36998 ft | 402 kts | 218° |
| 2026-05-05 23:56 | 44.82848 | 10.30892 | 36992 ft | 401 kts | 218° |
| 2026-05-05 23:57 | 44.78286 | 10.26434 | 36993 ft | 398 kts | 218° |
| 2026-05-05 23:57 | 44.73746 | 10.22000 | 36984 ft | 397 kts | 218° |
| 2026-05-05 23:58 | 44.69230 | 10.17534 | 36969 ft | 396 kts | 220° |
| 2026-05-05 23:58 | 44.64848 | 10.12857 | 36976 ft | 395 kts | 221° |
| 2026-05-05 23:59 | 44.60501 | 10.08128 | 36983 ft | 395 kts | 221° |
| 2026-05-05 23:59 | 44.56129 | 10.03445 | 36992 ft | 395 kts | 220° |
| 2026-05-06 00:00 | 44.51739 | 9.98799 | 36983 ft | 395 kts | 221° |
| 2026-05-06 00:00 | 44.47346 | 9.94162 | 36979 ft | 395 kts | 221° |
| 2026-05-06 00:01 | 44.42981 | 9.89560 | 36976 ft | 395 kts | 221° |
| 2026-05-06 00:01 | 44.38589 | 9.84932 | 36974 ft | 395 kts | 221° |
| 2026-05-06 00:02 | 44.34200 | 9.80311 | 36995 ft | 395 kts | 220° |
| 2026-05-06 00:02 | 44.29808 | 9.75705 | 36992 ft | 394 kts | 220° |
| 2026-05-06 00:03 | 44.25418 | 9.71110 | 36989 ft | 394 kts | 220° |
| 2026-05-06 00:03 | 44.21031 | 9.66517 | 36981 ft | 394 kts | 220° |
| 2026-05-06 00:04 | 44.16649 | 9.61940 | 36980 ft | 394 kts | 220° |
| 2026-05-06 00:04 | 44.12267 | 9.57370 | 36973 ft | 393 kts | 220° |
| 2026-05-06 00:05 | 44.05698 | 9.50543 | 36972 ft | 393 kts | 220° |
| 2026-05-06 00:06 | 44.01317 | 9.46001 | 36975 ft | 393 kts | 220° |
| 2026-05-06 00:06 | 43.96803 | 9.41721 | 36976 ft | 395 kts | 214° |
| 2026-05-06 00:07 | 43.92042 | 9.37927 | 36976 ft | 394 kts | 214° |
| 2026-05-06 00:07 | 43.87285 | 9.34134 | 36974 ft | 394 kts | 214° |
| 2026-05-06 00:08 | 43.82538 | 9.30348 | 36959 ft | 394 kts | 214° |
| 2026-05-06 00:08 | 43.77794 | 9.26568 | 36965 ft | 393 kts | 214° |
| 2026-05-06 00:09 | 43.73050 | 9.22801 | 36964 ft | 393 kts | 214° |
| 2026-05-06 00:09 | 43.68304 | 9.19045 | 36961 ft | 393 kts | 214° |
| 2026-05-06 00:10 | 43.63562 | 9.15292 | 36955 ft | 393 kts | 214° |
| 2026-05-06 00:10 | 43.58822 | 9.11546 | 36965 ft | 392 kts | 214° |
| 2026-05-06 00:11 | 43.54081 | 9.07815 | 36979 ft | 392 kts | 214° |
| 2026-05-06 00:11 | 43.49349 | 9.04088 | 36977 ft | 391 kts | 214° |
| 2026-05-06 00:12 | 43.44650 | 9.00400 | 36960 ft | 391 kts | 214° |
| 2026-05-06 00:12 | 43.39932 | 8.96712 | 36964 ft | 390 kts | 213° |
| 2026-05-06 00:13 | 43.34799 | 8.94035 | 36963 ft | 397 kts | 204° |
| 2026-05-06 00:13 | 43.29549 | 8.91696 | 36966 ft | 397 kts | 204° |
| 2026-05-06 00:14 | 43.24297 | 8.89364 | 36956 ft | 396 kts | 204° |
| 2026-05-06 00:14 | 43.19059 | 8.87045 | 36960 ft | 395 kts | 204° |
| 2026-05-06 00:15 | 43.13825 | 8.84717 | 36755 ft | 395 kts | 204° |
| 2026-05-06 00:15 | 43.11215 | 8.83556 | 36039 ft | 395 kts | 204° |
| 2026-05-06 00:15 | 43.08600 | 8.82400 | 35161 ft | 396 kts | 204° |
| 2026-05-06 00:15 | 43.05970 | 8.81239 | 34236 ft | 398 kts | 204° |
| 2026-05-06 00:16 | 43.03329 | 8.80076 | 33234 ft | 399 kts | 204° |
| 2026-05-06 00:16 | 43.00677 | 8.78908 | 32133 ft | 402 kts | 204° |
| 2026-05-06 00:16 | 42.98009 | 8.77732 | 31052 ft | 404 kts | 204° |
| 2026-05-06 00:16 | 42.95331 | 8.76551 | 30081 ft | 404 kts | 204° |
| 2026-05-06 00:17 | 42.92675 | 8.75384 | 29327 ft | 397 kts | 204° |
| 2026-05-06 00:17 | 42.90073 | 8.74247 | 28646 ft | 389 kts | 203° |
| 2026-05-06 00:17 | 42.87520 | 8.73136 | 27962 ft | 381 kts | 203° |
| 2026-05-06 00:17 | 42.85047 | 8.72060 | 27312 ft | 376 kts | 202° |
| 2026-05-06 00:18 | 42.82578 | 8.70983 | 26667 ft | 370 kts | 202° |
| 2026-05-06 00:18 | 42.80140 | 8.69913 | 26028 ft | 366 kts | 202° |
| 2026-05-06 00:18 | 42.77731 | 8.68855 | 25402 ft | 362 kts | 202° |
| 2026-05-06 00:18 | 42.75343 | 8.67804 | 24781 ft | 359 kts | 201° |
| 2026-05-06 00:19 | 42.72972 | 8.66763 | 24173 ft | 357 kts | 201° |
| 2026-05-06 00:19 | 42.70610 | 8.65726 | 23572 ft | 356 kts | 201° |
| 2026-05-06 00:19 | 42.68245 | 8.64691 | 22894 ft | 361 kts | 200° |
| 2026-05-06 00:19 | 42.65831 | 8.63634 | 22173 ft | 365 kts | 200° |
| 2026-05-06 00:20 | 42.63417 | 8.62578 | 21405 ft | 363 kts | 200° |
| 2026-05-06 00:20 | 42.61022 | 8.61542 | 20583 ft | 359 kts | 200° |
| 2026-05-06 00:20 | 42.58651 | 8.60517 | 19811 ft | 355 kts | 200° |
| 2026-05-06 00:20 | 42.56310 | 8.59502 | 19044 ft | 351 kts | 200° |
| 2026-05-06 00:21 | 42.53995 | 8.58495 | 18297 ft | 348 kts | 200° |
| 2026-05-06 00:21 | 42.51704 | 8.57500 | 17453 ft | 344 kts | 200° |
| 2026-05-06 00:21 | 42.49436 | 8.56522 | 16621 ft | 340 kts | 200° |
| 2026-05-06 00:21 | 42.47193 | 8.55553 | 15826 ft | 336 kts | 200° |
| 2026-05-06 00:22 | 42.44976 | 8.54594 | 15062 ft | 333 kts | 200° |
| 2026-05-06 00:22 | 42.42784 | 8.53647 | 14437 ft | 326 kts | 200° |
| 2026-05-06 00:22 | 42.40718 | 8.52759 | 14316 ft | 306 kts | 200° |
| 2026-05-06 00:22 | 42.38752 | 8.51913 | 14183 ft | 288 kts | 200° |
| 2026-05-06 00:23 | 42.36871 | 8.51103 | 13849 ft | 281 kts | 201° |
| 2026-05-06 00:23 | 42.35021 | 8.50305 | 13362 ft | 278 kts | 201° |
| 2026-05-06 00:23 | 42.33185 | 8.49513 | 12823 ft | 276 kts | 200° |
| 2026-05-06 00:23 | 42.31356 | 8.48723 | 12283 ft | 275 kts | 200° |
| 2026-05-06 00:24 | 42.29534 | 8.47935 | 11732 ft | 275 kts | 200° |
| 2026-05-06 00:24 | 42.27718 | 8.47149 | 11199 ft | 273 kts | 200° |
| 2026-05-06 00:24 | 42.25908 | 8.46370 | 10659 ft | 273 kts | 200° |
| 2026-05-06 00:24 | 42.24094 | 8.45618 | 10109 ft | 272 kts | 195° |
| 2026-05-06 00:25 | 42.22208 | 8.45367 | 9432 ft | 275 kts | 180° |
| 2026-05-06 00:25 | 42.21629 | 8.45433 | 9225 ft | 275 kts | 175° |
| 2026-05-06 00:25 | 42.20910 | 8.45611 | 8958 ft | 276 kts | 169° |
| 2026-05-06 00:26 | 42.19125 | 8.46546 | 8291 ft | 277 kts | 154° |
| 2026-05-06 00:26 | 42.17469 | 8.47844 | 7616 ft | 274 kts | 152° |
| 2026-05-06 00:26 | 42.15852 | 8.49168 | 6973 ft | 271 kts | 146° |
| 2026-05-06 00:26 | 42.14402 | 8.50770 | 6351 ft | 268 kts | 142° |
| 2026-05-06 00:27 | 42.12984 | 8.52369 | 5674 ft | 264 kts | 142° |
| 2026-05-06 00:27 | 42.11578 | 8.53948 | 5013 ft | 262 kts | 142° |
| 2026-05-06 00:27 | 42.10186 | 8.55509 | 4325 ft | 259 kts | 143° |
| 2026-05-06 00:27 | 42.08809 | 8.57052 | 4022 ft | 257 kts | 143° |
| 2026-05-06 00:28 | 42.07446 | 8.58577 | 3952 ft | 244 kts | 143° |
| 2026-05-06 00:28 | 42.06213 | 8.59961 | 3962 ft | 221 kts | 143° |
| 2026-05-06 00:28 | 42.05084 | 8.61225 | 3900 ft | 209 kts | 143° |
| 2026-05-06 00:28 | 42.03963 | 8.62474 | 3605 ft | 209 kts | 143° |
| 2026-05-06 00:29 | 42.02848 | 8.63719 | 3363 ft | 207 kts | 143° |
| 2026-05-06 00:29 | 42.01764 | 8.64970 | 3135 ft | 205 kts | 137° |
| 2026-05-06 00:29 | 42.00953 | 8.66526 | 2989 ft | 201 kts | 118° |
| 2026-05-06 00:29 | 42.00553 | 8.68296 | 2967 ft | 198 kts | 102° |
| 2026-05-06 00:30 | 42.00323 | 8.70112 | 2975 ft | 196 kts | 103° |
| 2026-05-06 00:30 | 42.00088 | 8.71887 | 2966 ft | 187 kts | 104° |
| 2026-05-06 00:30 | 41.99727 | 8.73514 | 2900 ft | 179 kts | 114° |
| 2026-05-06 00:30 | 41.99231 | 8.75040 | 2639 ft | 179 kts | 112° |
| 2026-05-06 00:31 | 41.98950 | 8.76672 | 2322 ft | 179 kts | 96° |
| 2026-05-06 00:31 | 41.98992 | 8.78315 | 2085 ft | 170 kts | 89° |
| 2026-05-06 00:31 | 41.99000 | 8.79852 | 1797 ft | 158 kts | 97° |
| 2026-05-06 00:31 | 41.98581 | 8.81057 | 1601 ft | 137 kts | 137° |
| 2026-05-06 00:32 | 41.97864 | 8.81849 | 1272 ft | 136 kts | 145° |
| 2026-05-06 00:32 | 41.97084 | 8.82416 | 1045 ft | 121 kts | 165° |
| 2026-05-06 00:32 | 41.96273 | 8.82542 | 845 ft | 117 kts | 185° |
| 2026-05-06 00:32 | 41.95511 | 8.82228 | 667 ft | 115 kts | 206° |
| 2026-05-06 00:33 | 41.94800 | 8.81748 | 520 ft | 114 kts | 206° |
| 2026-05-06 00:33 | 41.94083 | 8.81308 | 354 ft | 114 kts | 205° |
| 2026-05-06 00:33 | 41.93371 | 8.80857 | 175 ft | 112 kts | 206° |
| 2026-05-06 00:33 | 41.92669 | 8.80417 | 33 ft | 106 kts | 206° |
| 2026-05-06 00:34 | 41.92128 | 8.80079 | 24 ft | 63 kts | 205° |
| 2026-05-06 00:34 | 41.91803 | 8.79877 | 23 ft | 46 kts | 205° |
| 2026-05-06 00:34 | 41.91527 | 8.79704 | 21 ft | 42 kts | 205° |
| 2026-05-06 00:34 | 41.91295 | 8.79560 | 23 ft | 24 kts | 204° |
| 2026-05-06 00:35 | 41.91251 | 8.79428 | 22 ft | 16 kts | 298° |
| 2026-05-06 00:35 | 41.91339 | 8.79370 | 22 ft | 16 kts | 333° |
| 2026-05-06 00:35 | 41.91457 | 8.79335 | 21 ft | 19 kts | 8° |
| 2026-05-06 00:35 | 41.91589 | 8.79413 | 21 ft | 22 kts | 24° |
| 2026-05-06 00:36 | 41.91718 | 8.79487 | 22 ft | 9 kts | 353° |
| 2026-05-06 00:36 | 41.91729 | 8.79457 | 22 ft | 3 kts | 292° |
| 2026-05-06 00:36 | 41.91759 | 8.79440 | 21 ft | 7 kts | 344° |
| 2026-05-06 00:36 | 41.91763 | 8.79439 | 24 ft | 0 kts | 347° |